PDT,Max TemperatureF,Mean TemperatureF,Min TemperatureF,Max Dew PointF,MeanDew PointF,Min DewpointF,Max Humidity, Mean Humidity, Min Humidity, Max Sea Level PressureIn, Mean Sea Level PressureIn, Min Sea Level PressureIn, Max VisibilityMiles, Mean VisibilityMiles, Min VisibilityMiles, Max Wind SpeedMPH, Mean Wind SpeedMPH, Max Gust SpeedMPH,PrecipitationIn, CloudCover, Events, WindDirDegrees
2011-10-1,74,63,52,49,45,39,72,59,49,29.91,29.80,29.75,10,10,10,18,8,,0.03,2,Thunderstorm,299
2011-10-2,69,59,49,48,44,39,74,60,46,29.97,29.90,29.83,10,10,10,9,6,,0.01,4,,311
2011-10-3,63,58,52,51,48,45,83,72,60,29.81,29.78,29.76,10,10,10,15,4,18,0.05,4,Rain,314
2011-10-4,61,56,50,50,46,36,93,66,39,29.76,29.67,29.53,10,8,0,20,5,23,0.10,6,Fog-Rain,111
2011-10-5,51,48,45,48,46,42,100,84,64,29.65,29.49,29.44,10,9,3,14,5,,0.21,7,Rain,301
2011-10-6,49,47,45,43,41,39,80,59,40,29.89,29.77,29.65,10,10,10,20,11,30,0.09,4,Rain,298
2011-10-7,62,52,41,40,39,38,59,50,36,30.14,29.98,29.87,10,10,10,26,13,32,T,1,,296
2011-10-8,64,54,43,42,39,37,82,61,39,30.24,30.16,30.08,10,10,10,17,7,22,0.00,0,,43
2011-10-9,63,56,48,50,46,41,89,71,52,30.09,29.95,29.81,10,10,10,13,5,16,0.02,5,,106
2011-10-10,53,48,43,52,49,48,96,86,72,29.80,29.61,29.54,10,9,6,17,7,17,0.06,6,Rain,112
2011-10-11,64,54,44,52,45,37,100,69,37,30.02,29.70,29.56,10,7,0,30,10,39,0.01,3,Fog,314
2011-10-12,60,50,39,42,36,29,89,61,33,30.19,30.15,30.08,10,10,7,13,3,15,0.00,0,,304
2011-10-13,59,51,42,39,36,32,71,54,36,30.21,30.14,30.07,10,9,4,15,4,17,0.00,1,,291
2011-10-14,51,46,40,41,39,36,77,67,53,30.08,30.04,30.00,10,7,2,12,6,,0.01,7,Rain,297
2011-10-15,61,51,40,42,40,37,89,68,46,30.13,30.07,30.01,10,10,10,22,4,28,0.00,2,,312
2011-10-16,58,45,32,42,40,35,85,66,43,30.24,30.11,30.07,10,10,4,15,6,32,0.00,0,,247
2011-10-17,59,45,31,38,34,30,76,61,30,30.40,30.34,30.26,10,6,1,12,6,,0.00,2,,288
2011-10-18,58,43,28,42,38,34,86,66,41,30.43,30.28,30.07,10,10,5,7,4,,0.00,0,,302
2011-10-19,61,49,37,43,40,34,86,63,28,30.05,29.97,29.91,10,10,10,14,4,29,0.00,0,,309
2011-10-20,61,50,38,42,41,40,66,53,38,30.06,30.01,29.97,10,10,10,14,7,,0.00,1,,293
2011-10-21,58,53,47,46,42,40,86,72,57,30.14,30.11,30.06,10,10,8,10,4,14,0.00,3,,353
2011-10-22,63,55,46,52,46,41,90,70,44,30.14,30.07,30.03,10,8,2,13,3,16,0.09,3,Rain,284
2011-10-23,59,45,31,48,37,30,86,57,36,30.15,30.08,30.02,10,8,3,10,4,,0.00,0,,311
2011-10-24,59,49,39,33,29,23,70,47,24,30.30,30.16,30.03,10,8,2,23,11,28,0.00,0,,300
2011-10-25,50,36,21,31,27,23,79,55,29,30.45,30.40,30.32,10,10,10,9,5,,0.00,0,,290
2011-10-26,44,36,28,32,28,25,92,76,59,30.43,30.31,30.17,10,10,10,13,3,15,0.00,1,,37
2011-10-27,54,43,31,32,28,24,89,61,32,30.32,30.27,30.22,10,10,10,14,4,14,0.00,0,,14
2011-10-28,47,37,27,35,30,27,92,71,51,30.25,30.07,29.92,10,10,10,10,3,,0.06,1,Rain,85
2011-10-29,57,45,32,39,35,32,100,74,47,30.27,30.21,30.03,10,10,8,10,3,13,0.00,1,,302
2011-10-30,47,37,26,38,35,31,89,72,54,30.22,30.08,29.98,10,10,10,9,3,,0.04,2,,300
2011-10-31,57,48,38,36,27,23,70,47,23,30.37,30.21,30.02,10,10,10,24,9,29,0.00,1,,296